Time;durP1;ratioP1;P1;durP2;ratioP2;P2;SDS_P1;SDS_P2;PMS_P1;PMS_P2;Temp;Humidity;BMP_temperature;BMP_pressure;BME280_temperature;BME280_humidity;BME280_pressure;Samples;Min_cycle;Max_cycle;Signal;HPM_P1;HPM_P2
2022/05/31 00:01:25;;;;;;;2.63;1.73;;;16.70;99.90;;;;;;4985962;28;20088;-88
2022/05/31 00:03:50;;;;;;;4.40;2.35;;;16.60;99.90;;;;;;4962093;28;20026;-87
2022/05/31 00:06:16;;;;;;;6.97;2.20;;;16.60;99.90;;;;;;4962350;28;20495;-87
2022/05/31 00:08:42;;;;;;;3.85;2.20;;;16.90;99.90;;;;;;4978805;28;20098;-88
2022/05/31 00:11:07;;;;;;;5.25;2.30;;;16.60;99.90;;;;;;4961485;28;20038;-88
2022/05/31 00:13:33;;;;;;;4.13;2.33;;;16.50;99.90;;;;;;4963967;28;20080;-88
2022/05/31 00:15:59;;;;;;;3.88;2.25;;;16.40;99.90;;;;;;4987255;28;20430;-88
2022/05/31 00:18:25;;;;;;;3.90;2.17;;;16.40;99.90;;;;;;4990319;28;20030;-87
2022/05/31 00:20:50;;;;;;;3.65;1.92;;;16.40;99.90;;;;;;4972885;28;20027;-87
2022/05/31 00:23:17;;;;;;;2.38;1.77;;;16.30;99.90;;;;;;4987340;28;20089;-87
2022/05/31 00:25:42;;;;;;;4.28;2.13;;;16.40;99.90;;;;;;4987070;28;20384;-87
2022/05/31 00:28:08;;;;;;;2.67;1.80;;;16.40;99.90;;;;;;4985804;28;20037;-88
2022/05/31 00:30:34;;;;;;;3.88;2.20;;;16.40;99.90;;;;;;4971830;28;20066;-88
2022/05/31 00:33:00;;;;;;;4.38;2.55;;;16.40;99.90;;;;;;4976421;28;20026;-88
2022/05/31 00:35:36;;;;;;;5.90;2.30;;;16.50;99.90;;;;;;4977219;28;20396;-87
2022/05/31 00:38:02;;;;;;;4.53;2.00;;;16.30;99.90;;;;;;4978087;28;20035;-87
2022/05/31 00:40:30;;;;;;;5.35;1.80;;;16.30;99.90;;;;;;4961266;28;20057;-88
2022/05/31 00:42:58;;;;;;;2.25;1.80;;;16.80;99.90;;;;;;4975084;28;20050;-88
2022/05/31 00:45:35;;;;;;;3.92;2.00;;;16.30;99.90;;;;;;4973177;28;20034;-88
2022/05/31 00:48:02;;;;;;;3.95;2.20;;;16.20;99.90;;;;;;4989598;28;20065;-87
2022/05/31 00:50:32;;;;;;;2.10;1.90;;;16.10;99.90;;;;;;4988939;28;20034;-88
2022/05/31 00:53:03;;;;;;;3.97;1.88;;;16.30;99.90;;;;;;4986263;28;20038;-88
2022/05/31 00:55:42;;;;;;;2.63;1.80;;;16.30;99.90;;;;;;4986793;28;20034;-88
2022/05/31 00:58:46;;;;;;;2.28;1.85;;;16.30;99.90;;;;;;4986269;28;20399;-88
2022/05/31 01:01:16;;;;;;;4.72;1.92;;;16.30;99.90;;;;;;4971430;28;20042;-87
2022/05/31 01:03:43;;;;;;;3.38;1.75;;;16.20;99.90;;;;;;4960408;28;20487;-87
2022/05/31 01:06:12;;;;;;;3.25;1.90;;;16.20;99.90;;;;;;4957764;28;20398;-88
2022/05/31 01:08:45;;;;;;;2.28;2.05;;;16.30;99.90;;;;;;4977442;28;20400;-88
2022/05/31 01:11:17;;;;;;;2.88;1.90;;;16.10;99.90;;;;;;4977880;28;20038;-88
2022/05/31 01:13:43;;;;;;;3.70;1.98;;;16.00;99.90;;;;;;4984061;28;20037;-86
2022/05/31 01:16:11;;;;;;;5.07;1.88;;;16.00;99.90;;;;;;4986608;28;20038;-87
2022/05/31 01:18:38;;;;;;;2.78;1.80;;;16.00;99.90;;;;;;4974294;28;20031;-87
2022/05/31 01:21:04;;;;;;;4.97;2.13;;;16.00;99.90;;;;;;4989769;28;20109;-88
2022/05/31 01:23:36;;;;;;;3.80;2.10;;;15.90;99.90;;;;;;4977747;28;20066;-87
2022/05/31 01:29:11;;;;;;;3.22;2.17;;;16.00;99.90;;;;;;5857378;23;20061;-88
2022/05/31 01:31:45;;;;;;;3.60;2.15;;;16.00;99.90;;;;;;4969594;28;20065;-88
2022/05/31 01:34:28;;;;;;;6.57;2.58;;;16.00;99.90;;;;;;4971213;28;20027;-87
2022/05/31 01:36:55;;;;;;;7.95;2.13;;;16.00;99.90;;;;;;4969723;28;20030;-87
2022/05/31 01:39:39;;;;;;;3.55;1.80;;;16.10;99.90;;;;;;4971266;28;20079;-87
2022/05/31 01:42:36;;;;;;;3.63;1.85;;;16.10;99.90;;;;;;4954108;28;20026;-87
2022/05/31 01:45:12;;;;;;;3.95;2.08;;;16.20;99.90;;;;;;4937349;28;20027;-87
2022/05/31 01:47:38;;;;;;;4.65;1.73;;;16.10;99.90;;;;;;4954189;28;20403;-88
2022/05/31 01:50:08;;;;;;;3.88;1.77;;;16.00;99.90;;;;;;4957091;28;20027;-88
2022/05/31 01:52:34;;;;;;;3.67;2.00;;;16.10;99.90;;;;;;4958448;28;20388;-87
2022/05/31 01:55:00;;;;;;;3.22;1.85;;;16.20;99.90;;;;;;4955894;28;20042;-87
2022/05/31 01:57:27;;;;;;;4.28;2.45;;;16.20;99.90;;;;;;4975036;28;20101;-87
2022/05/31 01:59:57;;;;;;;4.85;2.30;;;16.20;99.90;;;;;;4958146;28;20034;-87
2022/05/31 02:02:23;;;;;;;4.63;2.30;;;16.20;99.90;;;;;;4972470;28;20586;-87
2022/05/31 02:04:49;;;;;;;4.40;2.22;;;16.30;99.90;;;;;;4974667;28;20499;-86
2022/05/31 02:07:18;;;;;;;5.13;2.70;;;16.30;99.90;;;;;;4972875;28;20033;-86
2022/05/31 02:09:46;;;;;;;3.88;2.40;;;16.30;99.90;;;;;;4974485;28;20026;-86
2022/05/31 02:12:13;;;;;;;3.55;2.20;;;16.30;99.90;;;;;;4974085;28;20039;-87
2022/05/31 02:14:39;;;;;;;5.78;2.10;;;16.40;99.90;;;;;;4958381;28;20030;-87
2022/05/31 02:17:05;;;;;;;4.13;2.28;;;16.20;99.90;;;;;;4957250;28;20031;-86
2022/05/31 02:19:31;;;;;;;3.40;2.20;;;16.30;99.90;;;;;;4957639;28;20518;-87
2022/05/31 02:22:06;;;;;;;4.05;2.03;;;16.30;99.90;;;;;;4954653;28;20058;-87
2022/05/31 02:24:33;;;;;;;3.50;2.05;;;16.40;99.90;;;;;;4971838;28;20038;-87
2022/05/31 02:27:00;;;;;;;4.97;2.20;;;16.40;99.90;;;;;;4973553;28;20035;-87
2022/05/31 02:29:32;;;;;;;5.32;1.98;;;16.30;99.90;;;;;;4973453;28;20082;-86
2022/05/31 02:32:00;;;;;;;2.97;2.13;;;16.20;99.90;;;;;;4971708;28;20043;-87
2022/05/31 02:34:30;;;;;;;4.22;2.38;;;16.20;99.90;;;;;;4972067;28;20034;-86
2022/05/31 02:36:56;;;;;;;2.08;1.85;;;16.20;99.90;;;;;;4973831;28;20076;-87
2022/05/31 02:39:22;;;;;;;2.17;1.90;;;16.10;99.90;;;;;;4956373;28;20118;-87
2022/05/31 02:41:48;;;;;;;3.60;2.05;;;16.10;99.90;;;;;;4975521;28;20031;-86
2022/05/31 02:44:14;;;;;;;3.92;1.77;;;16.20;99.90;;;;;;4972620;28;20019;-87
2022/05/31 02:46:40;;;;;;;6.07;1.98;;;16.30;99.90;;;;;;4972515;28;20038;-87
2022/05/31 02:49:06;;;;;;;6.20;2.17;;;16.40;99.90;;;;;;4972988;28;20034;-87
2022/05/31 02:51:37;;;;;;;4.40;2.08;;;16.30;99.90;;;;;;4973016;28;20042;-87
2022/05/31 02:54:04;;;;;;;4.40;2.15;;;16.30;99.90;;;;;;4974009;28;20029;-87
2022/05/31 02:56:29;;;;;;;4.05;2.28;;;16.30;99.90;;;;;;4974015;28;20398;-87
2022/05/31 02:58:56;;;;;;;5.65;2.28;;;16.30;99.90;;;;;;4973248;28;20026;-87
2022/05/31 03:01:25;;;;;;;5.78;2.70;;;16.30;99.90;;;;;;4972640;28;20089;-87
2022/05/31 03:03:51;;;;;;;8.50;2.40;;;16.30;99.90;;;;;;4957470;28;20033;-87
2022/05/31 03:06:18;;;;;;;4.32;2.88;;;16.30;99.90;;;;;;4972426;28;20507;-87
2022/05/31 03:08:43;;;;;;;3.70;2.30;;;16.30;99.90;;;;;;4954482;28;20093;-87
2022/05/31 03:11:22;;;;;;;4.65;2.20;;;16.40;99.90;;;;;;4971289;28;20503;-87
2022/05/31 03:13:52;;;;;;;3.47;2.22;;;16.40;99.90;;;;;;4970006;28;20038;-87
2022/05/31 03:16:20;;;;;;;3.25;2.22;;;16.30;99.90;;;;;;4976992;28;20497;-87
2022/05/31 03:19:07;;;;;;;6.50;2.40;;;16.30;99.90;;;;;;4977706;28;20054;-87
2022/05/31 03:21:40;;;;;;;2.60;2.15;;;16.20;99.90;;;;;;4961355;28;20545;-87
2022/05/31 03:24:16;;;;;;;4.95;2.50;;;16.20;99.90;;;;;;4972903;28;20038;-87
2022/05/31 03:26:42;;;;;;;3.88;2.28;;;16.10;99.90;;;;;;4974816;28;20035;-87
2022/05/31 03:29:09;;;;;;;3.08;2.28;;;16.40;99.90;;;;;;4956047;28;20050;-87
2022/05/31 03:31:36;;;;;;;6.43;2.20;;;16.00;99.90;;;;;;4971742;28;20038;-87
2022/05/31 03:34:02;;;;;;;2.97;2.10;;;16.00;99.90;;;;;;4955462;28;20510;-87
2022/05/31 03:36:27;;;;;;;6.07;2.40;;;16.10;99.90;;;;;;4972904;28;20027;-87
2022/05/31 03:38:53;;;;;;;7.43;2.33;;;16.00;99.90;;;;;;4973846;28;20033;-86
2022/05/31 03:41:19;;;;;;;5.80;2.45;;;16.00;99.90;;;;;;4973393;28;20090;-86
2022/05/31 03:43:45;;;;;;;5.82;2.67;;;15.90;99.90;;;;;;4972662;28;20426;-87
2022/05/31 03:46:15;;;;;;;4.43;2.40;;;15.90;99.90;;;;;;4954571;28;20050;-87
2022/05/31 03:48:41;;;;;;;4.13;2.10;;;15.90;99.90;;;;;;4953893;28;20107;-87
2022/05/31 03:51:09;;;;;;;4.97;2.15;;;15.90;99.90;;;;;;4972976;28;20519;-87
2022/05/31 03:53:35;;;;;;;4.20;2.20;;;16.00;99.90;;;;;;4973645;28;20095;-86
2022/05/31 03:56:06;;;;;;;3.58;2.40;;;16.20;99.90;;;;;;4956446;28;20138;-86
2022/05/31 03:58:32;;;;;;;3.70;2.10;;;16.30;99.90;;;;;;4956236;28;20074;-87
2022/05/31 04:00:59;;;;;;;3.65;2.13;;;16.40;99.90;;;;;;4970995;28;20498;-87
2022/05/31 04:03:25;;;;;;;4.00;2.20;;;16.50;99.90;;;;;;4970483;28;20031;-86
2022/05/31 04:05:52;;;;;;;4.00;1.98;;;16.60;99.90;;;;;;4973739;28;20027;-87
2022/05/31 04:08:19;;;;;;;4.53;2.50;;;16.70;99.90;;;;;;4973161;28;20078;-87
2022/05/31 04:10:45;;;;;;;10.45;2.83;;;16.80;99.90;;;;;;4971553;28;20450;-87
2022/05/31 04:13:12;;;;;;;5.20;2.80;;;17.00;99.90;;;;;;4954932;28;20031;-87
2022/05/31 04:15:38;;;;;;;4.55;3.10;;;17.10;99.90;;;;;;4954812;28;20023;-86
2022/05/31 04:18:04;;;;;;;7.65;2.97;;;17.20;99.90;;;;;;4972085;28;20030;-87
2022/05/31 04:20:31;;;;;;;5.10;2.80;;;17.20;99.90;;;;;;4956713;28;20027;-87
2022/05/31 04:25:41;;;;;;;7.18;2.80;;;17.50;99.90;;;;;;4972171;28;20454;-87
2022/05/31 04:28:07;;;;;;;6.05;3.10;;;17.30;99.90;;;;;;4970882;28;20031;-86
2022/05/31 04:30:33;;;;;;;5.95;2.72;;;17.20;99.90;;;;;;4951955;28;20031;-86
2022/05/31 04:32:58;;;;;;;4.43;3.08;;;17.30;99.90;;;;;;4972294;28;20510;-87
2022/05/31 04:35:24;;;;;;;4.57;3.40;;;17.40;99.90;;;;;;4956388;28;20399;-87
2022/05/31 04:37:49;;;;;;;4.95;2.20;;;17.50;99.90;;;;;;4971850;28;20514;-87
2022/05/31 04:40:15;;;;;;;3.53;2.88;;;17.70;99.90;;;;;;4955606;28;20047;-87
2022/05/31 04:42:42;;;;;;;4.88;2.00;;;17.90;99.90;;;;;;4971283;28;20031;-87
2022/05/31 04:45:08;;;;;;;3.55;2.72;;;18.10;99.90;;;;;;4968951;28;20623;-87
2022/05/31 04:47:34;;;;;;;8.60;3.20;;;18.10;99.90;;;;;;4972629;28;20055;-86
2022/05/31 04:50:01;;;;;;;8.27;3.08;;;18.20;99.90;;;;;;4972036;28;20034;-86
2022/05/31 04:52:26;;;;;;;7.85;3.53;;;18.20;99.90;;;;;;4971283;28;20039;-87
2022/05/31 04:54:52;;;;;;;4.88;2.38;;;18.30;99.90;;;;;;4971716;28;20033;-87
2022/05/31 04:57:18;;;;;;;7.43;3.15;;;18.40;99.90;;;;;;4953846;28;20158;-87
2022/05/31 04:59:45;;;;;;;3.15;1.85;;;18.40;99.90;;;;;;4972193;28;20027;-87
2022/05/31 05:02:11;;;;;;;3.33;1.90;;;18.50;99.90;;;;;;4971945;28;20121;-86
2022/05/31 05:04:38;;;;;;;5.03;2.03;;;18.60;99.90;;;;;;4955352;28;20499;-87
2022/05/31 05:07:04;;;;;;;5.97;2.03;;;18.60;99.90;;;;;;4970020;28;20038;-87
2022/05/31 05:09:29;;;;;;;6.78;2.15;;;18.70;99.90;;;;;;4953912;28;20027;-87
2022/05/31 05:11:55;;;;;;;3.00;1.80;;;18.70;99.90;;;;;;4972179;28;20407;-87
2022/05/31 05:14:21;;;;;;;10.13;2.47;;;18.70;99.90;;;;;;4954328;28;20034;-87
2022/05/31 05:16:48;;;;;;;3.95;1.73;;;18.70;99.90;;;;;;4970379;28;20065;-87
2022/05/31 05:19:14;;;;;;;4.68;1.90;;;18.70;99.90;;;;;;4970248;28;20034;-88
2022/05/31 05:21:40;;;;;;;4.82;1.70;;;18.70;99.90;;;;;;4971327;28;20087;-87
2022/05/31 05:24:06;;;;;;;6.30;2.17;;;18.60;99.90;;;;;;4973753;28;20059;-87
2022/05/31 05:26:31;;;;;;;3.25;1.48;;;18.50;99.90;;;;;;4976868;28;20392;-87
2022/05/31 05:31:42;;;;;;;5.95;2.22;;;18.20;99.90;;;;;;4973957;28;20529;-87
2022/05/31 05:34:08;;;;;;;3.85;2.05;;;17.40;99.90;;;;;;4975063;28;20023;-86
2022/05/31 05:36:34;;;;;;;2.88;1.95;;;17.70;99.90;;;;;;4974982;28;20035;-87
2022/05/31 05:39:00;;;;;;;3.60;2.00;;;17.80;99.90;;;;;;4958701;28;20054;-86
2022/05/31 05:41:28;;;;;;;5.72;2.33;;;17.70;99.90;;;;;;4974827;28;20026;-87
2022/05/31 05:43:54;;;;;;;4.47;2.10;;;17.60;99.90;;;;;;4974510;28;20039;-87
2022/05/31 05:46:22;;;;;;;4.28;1.90;;;17.50;99.90;;;;;;4957792;28;20384;-87
2022/05/31 05:48:48;;;;;;;10.93;1.90;;;17.30;99.90;;;;;;4973577;28;20533;-87
2022/05/31 05:51:21;;;;;;;11.95;2.15;;;17.10;99.90;;;;;;4962529;28;20062;-87
2022/05/31 05:53:47;;;;;;;3.67;2.35;;;17.10;99.90;;;;;;4955886;28;20427;-87
2022/05/31 05:56:13;;;;;;;4.45;2.40;;;16.80;99.90;;;;;;4975209;28;20031;-87
2022/05/31 05:58:40;;;;;;;4.65;2.58;;;16.80;99.90;;;;;;4974266;28;20097;-87
2022/05/31 06:01:26;;;;;;;2.92;2.20;;;15.00;99.90;;;;;;4957997;28;20055;-87
2022/05/31 06:04:02;;;;;;;8.18;2.60;;;15.30;99.90;;;;;;4974125;28;20037;-88
2022/05/31 06:06:31;;;;;;;4.45;2.97;;;14.80;99.90;;;;;;4959066;28;20033;-87
2022/05/31 06:09:08;;;;;;;6.82;2.67;;;14.00;1.00;;;;;;4975661;28;20114;-87
2022/05/31 06:11:34;;;;;;;4.85;3.28;;;14.20;99.90;;;;;;4974821;28;20113;-87
2022/05/31 06:14:13;;;;;;;4.20;2.53;;;14.30;1.00;;;;;;4974200;28;20031;-87
2022/05/31 06:16:44;;;;;;;5.70;3.10;;;14.40;1.00;;;;;;4956331;28;20522;-87
2022/05/31 06:19:15;;;;;;;7.03;4.18;;;14.60;99.90;;;;;;4973330;28;20396;-87
2022/05/31 06:21:43;;;;;;;9.32;5.05;;;15.00;99.90;;;;;;4956882;28;20035;-87
2022/05/31 06:24:09;;;;;;;8.02;5.25;;;15.10;99.90;;;;;;4957069;28;20101;-86
2022/05/31 06:26:35;;;;;;;8.35;5.78;;;15.30;99.90;;;;;;4974658;28;20102;-86
2022/05/31 06:29:00;;;;;;;7.18;4.18;;;15.50;99.90;;;;;;4972611;28;20081;-86
2022/05/31 06:31:26;;;;;;;7.18;3.78;;;15.50;99.90;;;;;;4971072;28;20031;-86
2022/05/31 06:33:52;;;;;;;6.60;4.03;;;15.70;99.90;;;;;;4973293;28;20023;-87
2022/05/31 06:36:18;;;;;;;5.05;3.40;;;15.70;99.90;;;;;;4972524;28;20029;-87
2022/05/31 06:38:45;;;;;;;5.72;4.03;;;16.20;99.90;;;;;;4976012;28;20027;-87
2022/05/31 06:41:10;;;;;;;8.45;3.80;;;16.40;99.90;;;;;;4973486;28;20042;-87
2022/05/31 06:43:36;;;;;;;5.65;3.90;;;16.20;99.90;;;;;;4973877;28;20027;-87
2022/05/31 06:46:10;;;;;;;6.18;3.67;;;16.50;99.90;;;;;;4972080;28;20038;-87
2022/05/31 06:48:36;;;;;;;6.90;4.00;;;16.50;99.90;;;;;;4973699;28;20404;-86
2022/05/31 06:51:10;;;;;;;8.20;3.63;;;16.40;99.90;;;;;;4973585;28;20030;-87
2022/05/31 06:59:04;;;;;;;6.72;3.72;;;16.20;1.00;;;;;;4973895;28;20042;-86
2022/05/31 07:01:35;;;;;;;6.95;3.22;;;16.20;1.00;;;;;;4972672;28;20023;-87
2022/05/31 07:04:01;;;;;;;4.90;3.08;;;16.50;1.00;;;;;;4974022;28;20035;-87
2022/05/31 07:06:27;;;;;;;3.95;3.00;;;17.10;1.00;;;;;;4973903;28;20029;-87
2022/05/31 07:08:53;;;;;;;5.45;2.90;;;17.40;1.00;;;;;;4957425;28;20030;-87
2022/05/31 07:11:20;;;;;;;4.13;2.85;;;17.60;99.90;;;;;;4974042;28;20034;-87
2022/05/31 07:13:45;;;;;;;4.75;2.58;;;17.60;99.90;;;;;;4973064;28;20125;-87
2022/05/31 07:16:11;;;;;;;3.63;2.40;;;17.80;99.90;;;;;;4970065;28;20118;-87
2022/05/31 07:18:37;;;;;;;3.53;2.58;;;18.00;99.90;;;;;;4969449;28;20071;-87
2022/05/31 07:21:02;;;;;;;4.45;2.65;;;18.10;99.90;;;;;;4974381;28;20023;-87
2022/05/31 07:23:28;;;;;;;5.68;2.90;;;18.10;99.90;;;;;;4972944;28;20030;-87
2022/05/31 07:25:53;;;;;;;4.15;2.60;;;18.10;99.90;;;;;;4972616;28;20026;-87
2022/05/31 07:28:19;;;;;;;5.28;3.03;;;18.40;99.90;;;;;;4973134;28;20031;-87
2022/05/31 07:30:45;;;;;;;3.88;2.50;;;18.50;99.90;;;;;;4972879;28;20409;-87
2022/05/31 07:33:12;;;;;;;6.97;2.78;;;18.60;99.90;;;;;;4954165;28;20031;-87
2022/05/31 07:35:41;;;;;;;4.03;2.13;;;18.80;99.90;;;;;;4974954;28;20058;-87
2022/05/31 07:38:08;;;;;;;4.13;2.83;;;19.00;99.90;;;;;;4971396;28;20106;-87
2022/05/31 07:40:34;;;;;;;4.45;2.30;;;19.30;99.90;;;;;;4972342;28;20106;-87
2022/05/31 07:43:01;;;;;;;4.53;2.60;;;19.00;99.90;;;;;;4971226;28;20035;-87
2022/05/31 07:45:28;;;;;;;4.28;2.70;;;19.10;99.90;;;;;;4971107;28;20054;-87
2022/05/31 07:47:54;;;;;;;7.03;2.70;;;19.40;99.90;;;;;;4972664;28;20477;-86
2022/05/31 07:50:20;;;;;;;6.00;2.75;;;19.50;99.90;;;;;;4973638;28;20027;-87
2022/05/31 07:52:47;;;;;;;4.28;2.38;;;19.50;99.90;;;;;;4970384;28;20423;-87
2022/05/31 07:55:13;;;;;;;4.32;2.47;;;19.90;99.90;;;;;;4956422;28;20510;-86
2022/05/31 08:00:24;;;;;;;4.63;2.58;;;21.10;99.90;;;;;;4956603;28;20033;-87
2022/05/31 08:02:49;;;;;;;4.72;2.70;;;21.40;99.90;;;;;;4972459;28;20483;-87
2022/05/31 08:05:15;;;;;;;3.10;2.45;;;21.50;99.90;;;;;;4971209;28;20388;-87
2022/05/31 08:07:42;;;;;;;5.70;2.92;;;21.60;99.90;;;;;;4971991;28;20023;-87
2022/05/31 08:10:11;;;;;;;4.05;2.80;;;21.60;99.90;;;;;;4971974;28;20553;-86
2022/05/31 08:12:36;;;;;;;4.15;2.78;;;21.60;99.90;;;;;;4971241;28;20034;-87
2022/05/31 08:15:04;;;;;;;5.32;2.40;;;21.60;99.90;;;;;;4971625;28;20027;-87
2022/05/31 08:17:30;;;;;;;4.55;2.30;;;21.50;99.90;;;;;;4974070;28;20031;-87
2022/05/31 08:19:56;;;;;;;2.50;2.10;;;22.30;99.90;;;;;;4971607;28;20039;-87
2022/05/31 08:22:22;;;;;;;4.57;2.38;;;21.90;99.90;;;;;;4969837;28;20037;-87
2022/05/31 08:24:49;;;;;;;3.13;2.30;;;22.00;99.90;;;;;;4970765;28;20054;-87
2022/05/31 08:27:15;;;;;;;4.13;2.35;;;22.20;99.90;;;;;;4939166;28;20491;-87
2022/05/31 08:29:42;;;;;;;7.85;2.60;;;22.40;99.90;;;;;;4972560;28;20114;-87
2022/05/31 08:32:07;;;;;;;4.45;2.10;;;22.40;99.90;;;;;;4971584;28;20073;-87
2022/05/31 08:34:33;;;;;;;3.88;2.38;;;22.00;99.90;;;;;;4970657;28;20022;-87
2022/05/31 08:36:59;;;;;;;3.95;2.10;;;21.80;99.90;;;;;;4971880;28;20465;-87
2022/05/31 08:39:25;;;;;;;4.07;2.13;;;22.30;99.90;;;;;;4970442;28;20054;-87
2022/05/31 08:41:57;;;;;;;4.75;2.30;;;22.70;99.90;;;;;;4973036;28;20034;-87
2022/05/31 08:44:28;;;;;;;3.70;2.08;;;22.70;99.90;;;;;;4970611;28;20037;-87
2022/05/31 08:47:36;;;;;;;2.97;2.58;;;22.30;99.90;;;;;;4969552;28;20070;-87
2022/05/31 08:53:26;;;;;;;4.35;2.20;;;22.60;99.90;;;;;;4972826;28;20134;-87
2022/05/31 08:59:06;;;;;;;3.53;2.10;;;23.30;99.90;;;;;;4976868;28;20090;-87
2022/05/31 09:01:40;;;;;;;3.20;2.10;;;24.10;99.90;;;;;;4976559;28;20034;-87
2022/05/31 09:04:19;;;;;;;4.03;2.28;;;23.90;99.90;;;;;;4977538;28;20041;-87
2022/05/31 09:06:51;;;;;;;4.72;2.33;;;23.30;99.90;;;;;;4976364;28;20026;-87
2022/05/31 09:09:23;;;;;;;3.50;2.00;;;23.10;99.90;;;;;;4962887;28;20027;-87
2022/05/31 09:12:13;;;;;;;4.63;2.20;;;23.60;99.90;;;;;;4975698;28;20519;-87
2022/05/31 09:15:02;;;;;;;5.05;2.20;;;24.10;99.90;;;;;;4977944;28;20027;-87
2022/05/31 09:17:51;;;;;;;4.70;2.20;;;24.20;99.90;;;;;;4977982;28;20031;-87
2022/05/31 09:20:36;;;;;;;2.97;2.40;;;23.20;99.90;;;;;;4975783;28;20035;-87
2022/05/31 09:23:01;;;;;;;3.55;2.50;;;22.40;99.90;;;;;;4976753;28;20406;-87
2022/05/31 09:25:37;;;;;;;5.22;3.20;;;22.30;99.90;;;;;;4961487;28;20038;-87
2022/05/31 09:28:11;;;;;;;4.00;3.22;;;21.80;99.90;;;;;;4977940;28;20037;-87
2022/05/31 09:30:41;;;;;;;7.47;3.42;;;21.80;99.90;;;;;;4960167;28;20046;-87
2022/05/31 09:33:15;;;;;;;4.15;3.33;;;21.60;99.90;;;;;;4977434;28;20077;-87
2022/05/31 09:35:46;;;;;;;5.95;2.80;;;21.30;99.90;;;;;;4979027;28;20035;-87
2022/05/31 09:38:45;;;;;;;3.92;2.58;;;21.20;99.90;;;;;;4972072;28;20038;-86
2022/05/31 09:41:18;;;;;;;4.63;2.40;;;21.10;99.90;;;;;;4972641;28;20030;-85
2022/05/31 09:43:55;;;;;;;4.03;2.03;;;21.20;99.90;;;;;;4976117;28;20031;-86
2022/05/31 09:46:45;;;;;;;4.90;2.17;;;20.70;99.90;;;;;;4976614;28;20027;-86
2022/05/31 09:49:21;;;;;;;3.15;2.30;;;20.60;99.90;;;;;;4976681;28;20109;-86
2022/05/31 09:51:47;;;;;;;3.42;2.67;;;20.90;99.90;;;;;;4977438;28;20053;-87
2022/05/31 09:57:06;;;;;;;4.15;2.72;;;21.30;99.90;;;;;;4975718;28;20438;-86
2022/05/31 09:59:50;;;;;;;8.27;3.40;;;21.30;99.90;;;;;;4976205;28;20035;-86
2022/05/31 10:02:29;;;;;;;3.33;2.58;;;21.70;99.90;;;;;;4976347;28;20117;-86
2022/05/31 10:05:20;;;;;;;4.57;2.50;;;21.60;99.90;;;;;;4976673;28;20035;-86
2022/05/31 10:07:47;;;;;;;3.53;2.28;;;21.70;99.90;;;;;;4960693;28;20089;-87
2022/05/31 10:10:16;;;;;;;5.55;2.45;;;21.10;99.90;;;;;;4973682;28;20495;-87
2022/05/31 10:12:55;;;;;;;4.85;2.55;;;20.70;99.90;;;;;;4972001;28;20418;-85
2022/05/31 10:15:50;;;;;;;3.58;2.13;;;20.60;99.90;;;;;;4959317;28;20049;-86
2022/05/31 10:18:29;;;;;;;3.35;2.28;;;20.70;99.90;;;;;;4957475;28;20435;-87
2022/05/31 10:21:04;;;;;;;5.45;2.40;;;20.70;99.90;;;;;;4972185;28;20166;-86
2022/05/31 10:23:36;;;;;;;2.83;2.20;;;20.70;99.90;;;;;;4973926;28;20035;-86
2022/05/31 10:26:02;;;;;;;2.92;2.15;;;20.70;99.90;;;;;;4973485;28;20034;-86
2022/05/31 10:28:33;;;;;;;3.55;2.40;;;20.90;99.90;;;;;;4971653;28;20302;-87
2022/05/31 10:31:24;;;;;;;4.22;2.38;;;20.90;99.90;;;;;;4972601;28;20023;-87
2022/05/31 10:34:03;;;;;;;3.92;2.30;;;20.90;99.90;;;;;;4955978;28;20155;-87
2022/05/31 10:36:48;;;;;;;3.22;2.92;;;21.10;99.90;;;;;;4957274;28;20166;-86
2022/05/31 10:39:22;;;;;;;3.33;2.38;;;21.20;99.90;;;;;;4973445;28;20504;-87
2022/05/31 10:41:52;;;;;;;3.90;2.00;;;21.40;99.90;;;;;;4954440;28;20073;-86
2022/05/31 10:44:36;;;;;;;3.78;2.42;;;21.50;99.90;;;;;;4971984;28;20035;-86
2022/05/31 10:47:10;;;;;;;8.60;2.70;;;21.20;99.90;;;;;;4972968;28;20035;-86
2022/05/31 10:49:36;;;;;;;3.30;2.53;;;20.90;99.90;;;;;;4971987;28;20149;-84
2022/05/31 10:52:25;;;;;;;3.13;2.33;;;21.10;99.90;;;;;;4973099;28;20495;-85
2022/05/31 10:55:08;;;;;;;4.63;2.50;;;20.90;99.90;;;;;;4972933;28;20081;-85
2022/05/31 10:58:11;;;;;;;4.00;2.70;;;20.70;99.90;;;;;;4971716;28;20020;-85
2022/05/31 11:00:59;;;;;;;4.88;2.80;;;20.40;99.90;;;;;;4959149;28;20037;-86
2022/05/31 11:03:32;;;;;;;4.85;2.58;;;20.20;99.90;;;;;;4940627;28;20361;-87
2022/05/31 11:06:16;;;;;;;8.00;3.30;;;20.20;99.90;;;;;;4973346;28;20034;-86
2022/05/31 11:11:49;;;;;;;7.22;3.45;;;19.70;99.90;;;;;;4973967;28;20057;-86
2022/05/31 11:14:48;;;;;;;7.57;4.10;;;19.50;99.90;;;;;;4970721;28;20066;-86
2022/05/31 11:17:34;;;;;;;9.30;3.67;;;19.40;99.90;;;;;;4972510;28;20399;-86
2022/05/31 11:20:14;;;;;;;6.57;3.67;;;19.40;99.90;;;;;;4972567;28;20389;-86
2022/05/31 11:23:01;;;;;;;10.27;4.28;;;19.60;99.90;;;;;;4973011;28;20042;-86
2022/05/31 11:25:52;;;;;;;10.00;4.78;;;19.30;99.90;;;;;;4972499;28;20027;-87
2022/05/31 11:28:36;;;;;;;14.65;4.63;;;19.40;99.90;;;;;;4971153;28;20044;-86
2022/05/31 11:31:14;;;;;;;11.30;4.30;;;19.40;99.90;;;;;;4971224;28;20047;-86
2022/05/31 11:33:51;;;;;;;7.72;3.50;;;19.70;99.90;;;;;;4956775;28;20528;-85
2022/05/31 11:36:41;;;;;;;11.13;4.18;;;19.10;99.90;;;;;;4955870;28;20034;-86
2022/05/31 11:39:13;;;;;;;8.25;2.70;;;19.10;99.90;;;;;;4971227;28;20057;-86
2022/05/31 11:41:59;;;;;;;13.23;4.50;;;18.80;99.90;;;;;;4974060;28;20027;-86
2022/05/31 11:44:46;;;;;;;4.78;3.45;;;19.10;99.90;;;;;;4955583;28;20066;-86
2022/05/31 11:47:31;;;;;;;6.07;3.08;;;19.10;99.90;;;;;;4971810;28;20122;-86
2022/05/31 11:50:09;;;;;;;7.38;3.35;;;19.20;99.90;;;;;;4971002;28;20128;-85
2022/05/31 11:53:00;;;;;;;8.55;3.50;;;19.20;99.90;;;;;;4971923;28;20042;-86
2022/05/31 11:55:50;;;;;;;5.70;3.35;;;19.30;99.90;;;;;;4971899;28;20031;-86
2022/05/31 11:58:20;;;;;;;5.40;3.55;;;19.50;99.90;;;;;;4971963;28;20026;-85
2022/05/31 12:00:59;;;;;;;8.55;3.63;;;19.40;99.90;;;;;;4971610;28;20140;-86
2022/05/31 12:03:46;;;;;;;6.15;3.42;;;19.40;99.90;;;;;;4957656;28;20018;-86
2022/05/31 12:06:37;;;;;;;3.53;2.70;;;19.50;99.90;;;;;;4953752;28;20053;-86
2022/05/31 12:09:14;;;;;;;5.43;3.25;;;19.50;99.90;;;;;;4970263;28;20145;-86
2022/05/31 12:11:57;;;;;;;6.72;3.90;;;19.60;99.90;;;;;;4973622;28;20046;-86
2022/05/31 12:14:24;;;;;;;5.03;3.50;;;19.70;99.90;;;;;;4972301;28;20030;-86
2022/05/31 12:16:51;;;;;;;7.65;3.65;;;19.60;99.90;;;;;;4970548;28;20035;-86
2022/05/31 12:22:24;;;;;;;3.42;2.70;;;19.80;99.90;;;;;;5425015;23;20525;-92
2022/05/31 12:25:03;;;;;;;4.18;3.10;;;20.20;99.90;;;;;;4938214;28;20027;-92
2022/05/31 12:27:39;;;;;;;3.88;2.80;;;20.30;99.90;;;;;;4923560;28;20093;-92
2022/05/31 12:30:19;;;;;;;3.83;2.83;;;20.50;99.90;;;;;;4954071;28;20058;-91
2022/05/31 12:32:47;;;;;;;4.22;2.42;;;20.90;99.90;;;;;;4935054;29;20571;-92
2022/05/31 12:35:30;;;;;;;3.45;2.70;;;22.10;99.90;;;;;;4947217;29;20366;-91
2022/05/31 12:38:02;;;;;;;4.60;2.90;;;23.20;99.90;;;;;;4955551;28;20167;-92
2022/05/31 12:40:34;;;;;;;6.10;3.17;;;22.90;99.90;;;;;;4957147;28;20044;-91
2022/05/31 12:43:47;;;;;;;6.35;3.03;;;22.60;99.90;;;;;;4956688;28;20480;-91
2022/05/31 12:46:46;;;;;;;4.15;2.95;;;22.50;99.90;;;;;;4952852;28;20135;-91
2022/05/31 12:49:23;;;;;;;3.55;2.67;;;22.00;99.90;;;;;;4922467;28;20031;-91
2022/05/31 12:54:45;;;;;;;4.57;3.00;;;21.60;99.90;;;;;;4944353;28;20041;-91
2022/05/31 13:00:33;;;;;;;4.55;3.53;;;20.70;99.90;;;;;;4938242;28;20043;-91
2022/05/31 13:03:05;;;;;;;5.97;3.00;;;20.40;99.90;;;;;;4951880;28;20027;-91
2022/05/31 13:05:57;;;;;;;4.15;3.00;;;20.20;99.90;;;;;;4951836;28;20035;-91
2022/05/31 13:08:51;;;;;;;6.13;2.90;;;20.30;99.90;;;;;;4957791;28;20082;-91
2022/05/31 13:19:45;;;;;;;6.70;3.50;;;20.30;99.90;;;;;;4956487;28;20411;-91
2022/05/31 13:22:14;;;;;;;4.20;3.28;;;20.40;99.90;;;;;;4959231;28;20039;-91
2022/05/31 13:25:01;;;;;;;7.45;3.85;;;20.30;99.90;;;;;;4967646;28;20062;-91
2022/05/31 13:27:29;;;;;;;4.07;3.65;;;20.30;99.90;;;;;;4941800;28;20026;-91
2022/05/31 13:30:14;;;;;;;3.65;3.30;;;20.30;99.90;;;;;;4956486;28;20106;-91
2022/05/31 13:32:40;;;;;;;5.75;3.53;;;20.20;99.90;;;;;;4963242;28;20030;-91
2022/05/31 13:35:24;;;;;;;4.28;3.33;;;20.30;99.90;;;;;;4955494;28;20038;-91
2022/05/31 13:38:03;;;;;;;5.95;3.35;;;20.20;99.90;;;;;;4922230;29;20027;-91
2022/05/31 13:40:36;;;;;;;5.68;3.58;;;20.00;99.90;;;;;;4955128;28;20438;-91
2022/05/31 13:43:05;;;;;;;4.97;4.07;;;20.20;99.90;;;;;;4964945;28;20488;-92
2022/05/31 13:45:33;;;;;;;5.07;3.95;;;20.20;99.90;;;;;;4940339;28;20027;-91
2022/05/31 13:48:07;;;;;;;5.18;3.47;;;20.10;99.90;;;;;;4962122;28;20031;-92
2022/05/31 13:50:54;;;;;;;4.22;3.63;;;20.00;99.90;;;;;;4958104;28;20085;-91
2022/05/31 13:53:21;;;;;;;7.53;3.75;;;19.80;99.90;;;;;;4960286;28;20067;-92
2022/05/31 13:55:57;;;;;;;17.50;6.05;;;19.90;99.90;;;;;;4950224;28;20078;-93